Terminal Aerodrome Forecast
Issued by NWS Sterling, VA

Current Version | Previous Version | Text Only | Print | Product List | Glossary Off
Versions: 1 2 3 4 5 6 7 8 9 10 11 12 13 14 15 16 17 18 19 20 21 22 23

000
FTUS41 KLWX 301700
TAFIAD
TAF
KIAD 301740Z 3018/3124 26005KT P6SM SCT050
     FM310000 VRB04KT P6SM BKN070
     FM311300 28005KT P6SM SCT070
     FM312000 23006KT P6SM SCT060
     FM312300 19004KT P6SM BKN070=

USA.gov is the U.S. government's official web portal to all federal, state and local government web resources and services.